Time;durP1;ratioP1;P1;durP2;ratioP2;P2;SDS_P1;SDS_P2;PMS_P1;PMS_P2;Temp;Humidity;BMP_temperature;BMP_pressure;BME280_temperature;BME280_humidity;BME280_pressure;Samples;Min_cycle;Max_cycle;Signal;HPM_P1;HPM_P2
2022/06/23 00:01:51;;;;;;;;;;;;;;;18.17;52.59863;101417.2;;;;-84
2022/06/23 00:06:52;;;;;;;;;;;;;;;18.11;52.32031;101406.2;;;;-84
2022/06/23 00:11:51;;;;;;;;;;;;;;;18.06;52.85742;101400.1;;;;-82
2022/06/23 00:16:50;;;;;;;;;;;;;;;17.99;52.97461;101392;;;;-84
2022/06/23 00:18:49;;;;;;;4.6;2.3;;;;;;;;;;;;;-83
2022/06/23 00:21:53;;;;;;;;;;;;;;;17.95;53.11816;101385.9;;;;-85
2022/06/23 00:26:49;;;;;;;;;;;;;;;17.93;53.03613;101377.4;;;;-83
2022/06/23 00:31:56;;;;;;;;;;;;;;;17.91;53.0332;101386.9;;;;-84
2022/06/23 00:36:56;;;;;;;;;;;;;;;17.87;53.1084;101382.3;;;;-84
2022/06/23 00:41:50;;;;;;;;;;;;;;;17.81;53.45215;101384.1;;;;-83
2022/06/23 00:46:52;;;;;;;;;;;;;;;17.77;53.59375;101386.9;;;;-83
2022/06/23 00:48:55;;;;;;;4;2.1;;;;;;;;;;;;;-84
2022/06/23 00:51:51;;;;;;;;;;;;;;;17.74;53.35254;101388.6;;;;-82
2022/06/23 00:56:54;;;;;;;;;;;;;;;17.7;53.8125;101378.4;;;;-85
2022/06/23 01:01:51;;;;;;;;;;;;;;;17.68;53.70898;101388.3;;;;-82
2022/06/23 01:06:53;;;;;;;;;;;;;;;17.62;53.84961;101392.1;;;;-82
2022/06/23 01:11:51;;;;;;;;;;;;;;;17.59;54.34375;101391.8;;;;-83
2022/06/23 01:16:52;;;;;;;;;;;;;;;17.55;53.7041;101392.9;;;;-85
2022/06/23 01:18:55;;;;;;;4.1;2.3;;;;;;;;;;;;;-85
2022/06/23 01:21:51;;;;;;;;;;;;;;;17.51;53.84668;101386.1;;;;-83
2022/06/23 01:27:06;;;;;;;;;;;;;;;17.47;53.62793;101379.4;;;;-83
2022/06/23 01:31:53;;;;;;;;;;;;;;;17.47;53.99902;101384.3;;;;-83
2022/06/23 01:36:51;;;;;;;;;;;;;;;17.4;53.99121;101385.9;;;;-83
2022/06/23 01:41:56;;;;;;;;;;;;;;;17.36;53.8623;101385.1;;;;-85
2022/06/23 01:46:52;;;;;;;;;;;;;;;17.33;54.33496;101370.8;;;;-85
2022/06/23 01:48:57;;;;;;;6.2;2.5;;;;;;;;;;;;;-84
2022/06/23 01:51:50;;;;;;;;;;;;;;;17.31;54.54688;101372.6;;;;-83
2022/06/23 01:57:04;;;;;;;;;;;;;;;17.3;55.24805;101373.2;;;;-83
2022/06/23 02:01:54;;;;;;;;;;;;;;;17.28;56.39941;101379.9;;;;-84
2022/06/23 02:06:53;;;;;;;;;;;;;;;17.25;55.40039;101373;;;;-83
2022/06/23 02:11:51;;;;;;;;;;;;;;;17.21;56.67285;101373;;;;-83
2022/06/23 02:16:57;;;;;;;;;;;;;;;17.22;55.58789;101378;;;;-83
2022/06/23 02:18:59;;;;;;;6.3;2.7;;;;;;;;;;;;;-83
2022/06/23 02:21:54;;;;;;;;;;;;;;;17.19;55.76563;101374.9;;;;-84
2022/06/23 02:26:52;;;;;;;;;;;;;;;17.16;55.53613;101388.5;;;;-84
2022/06/23 02:31:52;;;;;;;;;;;;;;;17.13;55.78125;101382.1;;;;-85
2022/06/23 02:37:12;;;;;;;;;;;;;;;17.09;55.97949;101381.5;;;;-83
2022/06/23 02:41:50;;;;;;;;;;;;;;;17.07;55.45703;101374.5;;;;-85
2022/06/23 02:46:57;;;;;;;;;;;;;;;17.05;55.33105;101364.9;;;;-84
2022/06/23 02:49:14;;;;;;;4.7;2.5;;;;;;;;;;;;;-85
2022/06/23 02:52:02;;;;;;;;;;;;;;;17.01;55.6748;101361;;;;-84
2022/06/23 02:57:02;;;;;;;;;;;;;;;16.98;56.24805;101363.4;;;;-81
2022/06/23 03:02:04;;;;;;;;;;;;;;;16.93;56.0498;101361;;;;-83
2022/06/23 03:07:01;;;;;;;;;;;;;;;16.89;55.75098;101356.4;;;;-84
2022/06/23 03:11:58;;;;;;;;;;;;;;;16.89;55.49023;101358.4;;;;-83
2022/06/23 03:16:51;;;;;;;;;;;;;;;16.85;55.72461;101351.9;;;;-84
2022/06/23 03:19:04;;;;;;;5.9;2.8;;;;;;;;;;;;;-86
2022/06/23 03:21:50;;;;;;;;;;;;;;;16.81;55.68359;101344.5;;;;-85
2022/06/23 03:26:52;;;;;;;;;;;;;;;16.78;55.42188;101350.5;;;;-83
2022/06/23 03:31:54;;;;;;;;;;;;;;;16.75;55.14551;101346;;;;-85
2022/06/23 03:36:51;;;;;;;;;;;;;;;16.73;55.28906;101342.1;;;;-83
2022/06/23 03:41:55;;;;;;;;;;;;;;;16.69;55.06934;101341.7;;;;-83
2022/06/23 03:46:51;;;;;;;;;;;;;;;16.66;55.21289;101335;;;;-84
2022/06/23 03:49:05;;;;;;;6.8;2.7;;;;;;;;;;;;;-85
2022/06/23 03:51:57;;;;;;;;;;;;;;;16.64;55.69727;101332.4;;;;-85
2022/06/23 03:56:51;;;;;;;;;;;;;;;16.63;55.37988;101341.3;;;;-83
2022/06/23 04:01:52;;;;;;;;;;;;;;;16.63;55.4248;101340.8;;;;-85
2022/06/23 04:06:51;;;;;;;;;;;;;;;16.62;55.68262;101339.6;;;;-84
2022/06/23 04:11:51;;;;;;;;;;;;;;;16.62;55.86328;101339.5;;;;-83
2022/06/23 04:16:50;;;;;;;;;;;;;;;16.6;56.18848;101334.8;;;;-83
2022/06/23 04:19:08;;;;;;;5.7;2.8;;;;;;;;;;;;;-83
2022/06/23 04:21:57;;;;;;;;;;;;;;;16.62;55.44531;101321.4;;;;-83
2022/06/23 04:26:51;;;;;;;;;;;;;;;16.63;55.76367;101324.8;;;;-83
2022/06/23 04:31:53;;;;;;;;;;;;;;;16.63;56.66797;101317;;;;-84
2022/06/23 04:36:51;;;;;;;;;;;;;;;16.64;56.74805;101315.4;;;;-84
2022/06/23 04:41:50;;;;;;;;;;;;;;;16.65;58.21777;101315.8;;;;-84
2022/06/23 04:46:51;;;;;;;;;;;;;;;16.68;57.4873;101314.8;;;;-84
2022/06/23 04:49:09;;;;;;;5.8;3.4;;;;;;;;;;;;;-85
2022/06/23 04:51:51;;;;;;;;;;;;;;;16.71;58.35059;101299.3;;;;-85
2022/06/23 04:56:52;;;;;;;;;;;;;;;16.73;58.54492;101298.8;;;;-82
2022/06/23 05:01:51;;;;;;;;;;;;;;;16.79;58.57422;101287.4;;;;-84
2022/06/23 05:06:51;;;;;;;;;;;;;;;16.84;57.89258;101290.3;;;;-84
2022/06/23 05:11:51;;;;;;;;;;;;;;;16.88;59.16309;101279.2;;;;-82
2022/06/23 05:16:52;;;;;;;;;;;;;;;16.96;59.0498;101276.2;;;;-83
2022/06/23 05:19:10;;;;;;;7;3.3;;;;;;;;;;;;;-85
2022/06/23 05:21:53;;;;;;;;;;;;;;;17.15;59.76465;101286;;;;-85
2022/06/23 05:26:53;;;;;;;;;;;;;;;17.51;58.88477;101284.3;;;;-82
2022/06/23 05:31:52;;;;;;;;;;;;;;;18.16;57.24902;101279;;;;-84
2022/06/23 05:36:55;;;;;;;;;;;;;;;18.93;55.04297;101263.5;;;;-83
2022/06/23 05:41:50;;;;;;;;;;;;;;;19.63;53.5459;101263;;;;-83
2022/06/23 05:46:50;;;;;;;;;;;;;;;20.25;52.32031;101251.5;;;;-85
2022/06/23 05:49:17;;;;;;;5.5;3.2;;;;;;;;;;;;;-84
2022/06/23 05:51:55;;;;;;;;;;;;;;;20.8;51.41504;101267.1;;;;-85
2022/06/23 05:56:57;;;;;;;;;;;;;;;21.26;50.49609;101275;;;;-85
2022/06/23 06:01:52;;;;;;;;;;;;;;;21.65;49.80664;101275.4;;;;-82
2022/06/23 06:06:54;;;;;;;;;;;;;;;22.05;49.13965;101280.4;;;;-87
2022/06/23 06:11:55;;;;;;;;;;;;;;;22.43;48.40137;101287.9;;;;-86
2022/06/23 06:16:49;;;;;;;;;;;;;;;22.88;47.46387;101275.8;;;;-84
2022/06/23 06:19:21;;;;;;;6.2;2.8;;;;;;;;;;;;;-85
2022/06/23 06:21:50;;;;;;;;;;;;;;;23.38;46.42383;101276.5;;;;-85
2022/06/23 06:26:51;;;;;;;;;;;;;;;23.84;45.69824;101275.2;;;;-82
2022/06/23 06:31:52;;;;;;;;;;;;;;;24.23;45.10449;101269.8;;;;-85
2022/06/23 06:36:52;;;;;;;;;;;;;;;24.53;44.83398;101262.1;;;;-83
2022/06/23 06:41:53;;;;;;;;;;;;;;;24.82;44.35449;101250;;;;-84
2022/06/23 06:46:50;;;;;;;;;;;;;;;25.15;43.9248;101239.8;;;;-84
2022/06/23 06:49:18;;;;;;;4.3;2.4;;;;;;;;;;;;;-83
2022/06/23 06:51:53;;;;;;;;;;;;;;;25.5;43.26465;101243.8;;;;-84
2022/06/23 06:56:54;;;;;;;;;;;;;;;25.79;42.87598;101262.3;;;;-84
2022/06/23 07:01:52;;;;;;;;;;;;;;;26.12;42.29297;101284.7;;;;-85
2022/06/23 07:06:51;;;;;;;;;;;;;;;26.39;41.86523;101274.8;;;;-83
2022/06/23 07:11:54;;;;;;;;;;;;;;;26.62;41.53809;101272.9;;;;-83
2022/06/23 07:16:53;;;;;;;;;;;;;;;26.81;41.1377;101265.9;;;;-82
2022/06/23 07:19:23;;;;;;;6.3;2.5;;;;;;;;;;;;;-85
2022/06/23 07:21:54;;;;;;;;;;;;;;;26.99;40.94434;101264.4;;;;-84
2022/06/23 07:26:51;;;;;;;;;;;;;;;27.19;40.6377;101260.8;;;;-83
2022/06/23 07:31:57;;;;;;;;;;;;;;;27.42;40.36816;101268.9;;;;-84
2022/06/23 07:36:54;;;;;;;;;;;;;;;27.67;40.00684;101271.2;;;;-86
2022/06/23 07:41:54;;;;;;;;;;;;;;;27.92;39.6084;101258.2;;;;-85
2022/06/23 07:47:05;;;;;;;;;;;;;;;28.15;39.36035;101265.5;;;;-86
2022/06/23 07:49:27;;;;;;;4.1;2.3;;;;;;;;;;;;;-86
2022/06/23 07:52:48;;;;;;;;;;;;;;;28.67;38.64746;101248.4;;;;-82
2022/06/23 07:55:53;;;;;;;;;;;;;;;28.48;38.98145;101251.9;;;;-84
2022/06/23 08:00:45;;;;;;;;;;;;;;;28.67;38.83398;101249.2;;;;-84
2022/06/23 08:05:52;;;;;;;;;;;;;;;28.81;38.71777;101223.7;;;;-85
2022/06/23 08:10:46;;;;;;;;;;;;;;;28.98;38.40625;101222.9;;;;-84
2022/06/23 08:19:36;;;;;;;4.8;2.4;;;;;;;;;;;;;-86
2022/06/23 08:20:54;;;;;;;;;;;;;;;29.4;37.89063;101209.5;;;;-85
2022/06/23 08:25:49;;;;;;;;;;;;;;;29.57;37.71875;101200.5;;;;-85
2022/06/23 08:30:42;;;;;;;;;;;;;;;29.8;37.44434;101205.2;;;;-84
2022/06/23 08:35:44;;;;;;;;;;;;;;;29.97;37.23633;101201.9;;;;-85
2022/06/23 08:40:51;;;;;;;;;;;;;;;30.12;37.03809;101205.4;;;;-86
2022/06/23 08:45:45;;;;;;;;;;;;;;;30.31;36.87793;101218.4;;;;-84
2022/06/23 08:49:40;;;;;;;4.1;2.7;;;;;;;;;;;;;-85
2022/06/23 08:50:45;;;;;;;;;;;;;;;30.48;36.66895;101212.2;;;;-84
2022/06/23 08:55:51;;;;;;;;;;;;;;;30.62;36.36328;101210.3;;;;-84
2022/06/23 09:00:51;;;;;;;;;;;;;;;30.76;36.2334;101203.9;;;;-85
2022/06/23 09:05:46;;;;;;;;;;;;;;;30.94;35.95508;101214.6;;;;-86
2022/06/23 09:10:46;;;;;;;;;;;;;;;31.09;35.8252;101213.7;;;;-84
2022/06/23 09:15:51;;;;;;;;;;;;;;;31.22;35.61328;101203.2;;;;-83
2022/06/23 09:19:44;;;;;;;7.6;2.8;;;;;;;;;;;;;-85
2022/06/23 09:20:49;;;;;;;;;;;;;;;31.38;35.47266;101194;;;;-85
2022/06/23 09:25:54;;;;;;;;;;;;;;;31.66;35.12988;101201;;;;-83
2022/06/23 09:30:59;;;;;;;;;;;;;;;31.86;34.80371;101204.1;;;;-84
2022/06/23 09:35:54;;;;;;;;;;;;;;;32.02;34.78027;101191.1;;;;-84
2022/06/23 09:40:46;;;;;;;;;;;;;;;32.21;34.48926;101200.3;;;;-84
2022/06/23 09:45:56;;;;;;;;;;;;;;;32.4;34.24512;101192.6;;;;-83
2022/06/23 09:49:53;;;;;;;6.9;3.1;;;;;;;;;;;;;-83
2022/06/23 09:50:47;;;;;;;;;;;;;;;32.6;34.03613;101189.4;;;;-86
2022/06/23 09:55:54;;;;;;;;;;;;;;;32.81;33.79102;101180.2;;;;-83
2022/06/23 10:00:48;;;;;;;;;;;;;;;33.03;33.70117;101177.3;;;;-85
2022/06/23 10:05:55;;;;;;;;;;;;;;;33.26;33.31738;101178.2;;;;-84
2022/06/23 10:10:50;;;;;;;;;;;;;;;33.48;32.8252;101184.5;;;;-84
2022/06/23 10:15:56;;;;;;;;;;;;;;;33.73;32.74805;101187.1;;;;-83
2022/06/23 10:20:02;;;;;;;4.7;2.8;;;;;;;;;;;;;-84
2022/06/23 10:20:48;;;;;;;;;;;;;;;33.99;32.53027;101181.7;;;;-83
2022/06/23 10:25:58;;;;;;;;;;;;;;;34.17;32.33008;101172.7;;;;-85
2022/06/23 10:30:46;;;;;;;;;;;;;;;34.37;32.32031;101168.8;;;;-85
2022/06/23 10:35:51;;;;;;;;;;;;;;;34.61;32.23047;101162.6;;;;-85
2022/06/23 10:40:54;;;;;;;;;;;;;;;34.8;31.92383;101161.4;;;;-84
2022/06/23 10:45:53;;;;;;;;;;;;;;;34.96;31.89941;101158.5;;;;-84
2022/06/23 10:50:08;;;;;;;4.6;2.4;;;;;;;;;;;;;-85
2022/06/23 10:50:51;;;;;;;;;;;;;;;35.19;31.96289;101155.5;;;;-85
2022/06/23 10:55:45;;;;;;;;;;;;;;;35.42;31.84863;101151.5;;;;-84
2022/06/23 11:00:46;;;;;;;;;;;;;;;35.66;31.63965;101150.4;;;;-86
2022/06/23 11:05:52;;;;;;;;;;;;;;;35.89;31.65527;101135.7;;;;-87
2022/06/23 11:10:58;;;;;;;;;;;;;;;36.13;31.35059;101133.4;;;;-88
2022/06/23 11:15:45;;;;;;;;;;;;;;;36.35;31.71094;101124.9;;;;-85
2022/06/23 11:20:07;;;;;;;4.7;2.8;;;;;;;;;;;;;-85
2022/06/23 11:20:47;;;;;;;;;;;;;;;36.6;31.08496;101123.3;;;;-86
2022/06/23 11:25:53;;;;;;;;;;;;;;;36.8;31.37207;101118.7;;;;-85
2022/06/23 11:30:50;;;;;;;;;;;;;;;36.99;31.62402;101119;;;;-84
2022/06/23 11:35:59;;;;;;;;;;;;;;;37.11;31.90625;101110.6;;;;-85
2022/06/23 11:40:57;;;;;;;;;;;;;;;37.25;30.66406;101103;;;;-85
2022/06/23 11:45:47;;;;;;;;;;;;;;;37.4;30.9375;101103.9;;;;-84
2022/06/23 11:50:17;;;;;;;4.8;2.8;;;;;;;;;;;;;-84
2022/06/23 11:50:52;;;;;;;;;;;;;;;37.49;31.26465;101093.5;;;;-84
2022/06/23 11:55:55;;;;;;;;;;;;;;;37.6;30.19824;101094.3;;;;-84
2022/06/23 12:05:47;;;;;;;;;;;;;;;37.96;31.30859;101084.8;;;;-86
2022/06/23 12:15:44;;;;;;;;;;;;;;;38.11;31.68945;101075.6;;;;-87
2022/06/23 12:20:23;;;;;;;6.7;3.2;;;;;;;;;;;;;-87
2022/06/23 12:20:45;;;;;;;;;;;;;;;38.24;31.62598;101082.4;;;;-85
2022/06/23 12:25:48;;;;;;;;;;;;;;;38.35;31.40723;101080;;;;-86
2022/06/23 12:30:49;;;;;;;;;;;;;;;38.4;31.60156;101073.6;;;;-87
2022/06/23 12:35:53;;;;;;;;;;;;;;;38.41;31.55469;101078.2;;;;-85
2022/06/23 12:40:51;;;;;;;;;;;;;;;38.52;31.38184;101073.5;;;;-88
2022/06/23 12:47:26;;;;;;;;;;;;;;;39.07;30.70215;101068.9;;;;-85
2022/06/23 12:51:28;;;;;;;;;;;;;;;38.67;31.01074;101052.1;;;;-87
2022/06/23 12:56:14;;;;;;;;;;;;;;;38.82;30.66113;101049.2;;;;-86
2022/06/23 13:01:12;;;;;;;;;;;;;;;38.94;30.58594;101042.8;;;;-87
2022/06/23 13:07:39;;;;;;;;;;;;;;;39.47;30.2373;101047;;;;-87
2022/06/23 13:11:09;;;;;;;;;;;;;;;39.09;30.43945;101038.4;;;;-85
2022/06/23 13:16:21;;;;;;;;;;;;;;;39.01;30.375;101032.9;;;;-86
2022/06/23 13:20:29;;;;;;;6.7;3.2;;;;;;;;;;;;;-87
2022/06/23 13:21:20;;;;;;;;;;;;;;;39.03;30.31641;101036.3;;;;-87
2022/06/23 13:26:17;;;;;;;;;;;;;;;39.01;30.20703;101028.4;;;;-86
2022/06/23 13:31:08;;;;;;;;;;;;;;;39.02;30.28027;101028.7;;;;-85
2022/06/23 13:36:10;;;;;;;;;;;;;;;38.97;30.49121;101022.7;;;;-86
2022/06/23 13:41:23;;;;;;;;;;;;;;;;;;;;;
2022/06/23 13:46:05;;;;;;;;;;;;;;;38.75;30.03516;101001.9;;;;-83
2022/06/23 13:50:36;;;;;;;8.9;3.2;;;;;;;;;;;;;-86
2022/06/23 13:51:21;;;;;;;;;;;;;;;38.71;30.05566;100998.9;;;;-86
2022/06/23 13:56:22;;;;;;;;;;;;;;;38.75;30.17871;100996.9;;;;-88
2022/06/23 14:01:12;;;;;;;;;;;;;;;38.88;29.93555;100997.2;;;;-84
2022/06/23 14:06:14;;;;;;;;;;;;;;;38.95;29.48535;100992.1;;;;-85
2022/06/23 14:11:06;;;;;;;;;;;;;;;39.03;29.81348;100983.4;;;;-86
2022/06/23 14:16:07;;;;;;;;;;;;;;;39.11;29.85449;100982.3;;;;-88
2022/06/23 14:20:50;;;;;;;7.4;3.2;;;;;;;;;;;;;-87
2022/06/23 14:21:17;;;;;;;;;;;;;;;39.11;29.89063;100968.3;;;;-86
2022/06/23 14:26:23;;;;;;;;;;;;;;;39.23;29.88574;100976.2;;;;-88
2022/06/23 14:31:12;;;;;;;;;;;;;;;39.13;29.74805;100972.1;;;;-86
2022/06/23 14:36:17;;;;;;;;;;;;;;;38.95;28.8623;100963.2;;;;-87
2022/06/23 14:38:02;;;;;;;;;;;;;;;39.26;28.64258;100959.2;;;;-85
2022/06/23 14:41:06;;;;;;;;;;;;;;;38.77;28.79199;100956.8;;;;-87
2022/06/23 14:50:59;;;;;;;7.9;2.8;;;;;;;;;;;;;-86
2022/06/23 14:51:13;;;;;;;;;;;;;;;38.56;28.65918;100938.5;;;;-85
2022/06/23 14:56:23;;;;;;;;;;;;;;;38.48;28.51074;100938.5;;;;-88
2022/06/23 15:06:01;;;;;;;;;;;;;;;38.52;28.47754;100922;;;;-85
2022/06/23 15:11:18;;;;;;;;;;;;;;;38.53;28.89648;100921.9;;;;-88
2022/06/23 15:16:15;;;;;;;;;;;;;;;38.4;28.69727;100922.9;;;;-86
2022/06/23 15:20:58;;;;;;;7.7;2.7;;;;;;;;;;;;;-89
2022/06/23 15:23:09;;;;;;;;;;;;;;;38.32;28.8584;100911.7;;;;-87
2022/06/23 15:26:07;;;;;;;;;;;;;;;38.29;28.66602;100909.7;;;;-87
2022/06/23 15:31:08;;;;;;;;;;;;;;;38.25;28.77148;100909.3;;;;-88
2022/06/23 15:44:23;;;;;;;;;;;;;;;37.91;29.69336;100902.3;;;;-86
2022/06/23 16:01:09;;;;;;;;;;;;;;;37.65;29.27051;100914.2;;;;-86
2022/06/23 16:05:14;;;;;;;;;;;;;;;37.23;29.4834;100910.8;;;;-85
2022/06/23 16:15:10;;;;;;;;;;;;;;;36.99;30.08789;100900.5;;;;-84
2022/06/23 16:20:13;;;;;;;;;;;;;;;36.8;30.47949;100893.2;;;;-84
2022/06/23 16:21:06;;;;;;;9.5;3.2;;;;;;;;;;;;;-85
2022/06/23 16:25:12;;;;;;;;;;;;;;;36.69;30.52051;100889.2;;;;-85
2022/06/23 16:30:15;;;;;;;;;;;;;;;36.67;30.6377;100893.9;;;;-85
2022/06/23 16:40:13;;;;;;;;;;;;;;;36.65;30.69629;100899.6;;;;-85
2022/06/23 16:45:18;;;;;;;;;;;;;;;36.56;30.60645;100890.4;;;;-84
2022/06/23 16:50:28;;;;;;;;;;;;;;;36.48;31.10059;100891.1;;;;-85
2022/06/23 16:51:29;;;;;;;9.5;4;;;;;;;;;;;;;-84
2022/06/23 16:55:20;;;;;;;;;;;;;;;36.37;31.4502;100893.8;;;;-84
2022/06/23 17:00:13;;;;;;;;;;;;;;;36.25;31.75195;100893.2;;;;-87
2022/06/23 17:05:24;;;;;;;;;;;;;;;36.13;31.95703;100884.6;;;;-84
2022/06/23 17:10:26;;;;;;;;;;;;;;;36;32.05566;100878.1;;;;-87
2022/06/23 17:15:13;;;;;;;;;;;;;;;35.86;32.40137;100875.8;;;;-85
2022/06/23 17:20:08;;;;;;;;;;;;;;;35.69;32.69922;100865.4;;;;-85
2022/06/23 17:21:36;;;;;;;9.3;4.2;;;;;;;;;;;;;-86
2022/06/23 17:25:16;;;;;;;;;;;;;;;35.5;32.82813;100866.5;;;;-87
2022/06/23 17:30:22;;;;;;;;;;;;;;;35.34;33.16016;100868.7;;;;-85
2022/06/23 17:35:15;;;;;;;;;;;;;;;35.18;33.38574;100867.5;;;;-88
2022/06/23 17:50:40;;;;;;;;;;;;;;;;;;;;;
2022/06/23 17:51:44;;;;;;;10.6;4.8;;;;;;;;;;;;;-89
2022/06/23 17:55:32;;;;;;;;;;;;;;;34.65;34.07031;100878.6;;;;-86
2022/06/23 17:56:57;;;;;;;;;;;;;;;34.89;33.76758;100880.4;;;;-86
2022/06/23 18:06:22;;;;;;;;;;;;;;;34.3;34.41016;100903.2;;;;-87
2022/06/23 18:13:29;;;;;;;;;;;;;;;34.37;34.22656;100906;;;;-85
2022/06/23 18:44:58;;;;;;;;;;;;;;;32.52;36.25586;100898.3;;;;-88
2022/06/23 19:08:39;;;;;;;;;;;;;;;31.31;36.16016;100915.7;;;;-79
2022/06/23 19:13:46;;;;;;;;;;;;;;;31;36.35938;100910.2;;;;-79
2022/06/23 19:18:43;;;;;;;;;;;;;;;30.68;36.59082;100928.2;;;;-77
2022/06/23 19:21:39;;;;;;;8.9;5.2;;;;;;;;;;;;;-78
2022/06/23 19:23:45;;;;;;;;;;;;;;;30.38;36.85938;100939.7;;;;-79
2022/06/23 19:28:45;;;;;;;;;;;;;;;30.06;37.0918;100932;;;;-79
2022/06/23 19:33:42;;;;;;;;;;;;;;;29.78;37.43164;100933.4;;;;-78
2022/06/23 19:38:42;;;;;;;;;;;;;;;29.5;37.60742;100934.9;;;;-78
2022/06/23 19:43:49;;;;;;;;;;;;;;;29.22;37.94727;100942.5;;;;-79
2022/06/23 19:48:45;;;;;;;;;;;;;;;28.93;38.10938;100945.5;;;;-78
2022/06/23 19:51:41;;;;;;;8.7;5.3;;;;;;;;;;;;;-78
2022/06/23 19:53:42;;;;;;;;;;;;;;;28.67;38.37891;100946.9;;;;-80
2022/06/23 19:58:45;;;;;;;;;;;;;;;28.43;38.67285;100948;;;;-79
2022/06/23 20:03:46;;;;;;;;;;;;;;;28.18;39.02539;100939.7;;;;-80
2022/06/23 20:08:44;;;;;;;;;;;;;;;27.94;39.24902;100934.5;;;;-77
2022/06/23 20:13:44;;;;;;;;;;;;;;;27.7;39.74121;100934.8;;;;-78
2022/06/23 20:18:40;;;;;;;;;;;;;;;27.47;39.96484;100931.8;;;;-78
2022/06/23 20:21:51;;;;;;;11.2;6.1;;;;;;;;;;;;;-78
2022/06/23 20:23:44;;;;;;;;;;;;;;;27.25;40.28223;100931;;;;-79
2022/06/23 20:28:47;;;;;;;;;;;;;;;27.05;40.625;100920.1;;;;-78
2022/06/23 20:33:46;;;;;;;;;;;;;;;26.85;40.875;100913.6;;;;-78
2022/06/23 20:39:01;;;;;;;;;;;;;;;26.66;41.33398;100913;;;;-79
2022/06/23 20:43:49;;;;;;;;;;;;;;;26.48;41.44434;100914.3;;;;-79
2022/06/23 20:48:56;;;;;;;;;;;;;;;26.32;41.68555;100910.5;;;;-78
2022/06/23 20:51:52;;;;;;;10.3;6.6;;;;;;;;;;;;;-77
2022/06/23 20:53:45;;;;;;;;;;;;;;;26.18;41.99707;100915.3;;;;-78
2022/06/23 20:58:43;;;;;;;;;;;;;;;26.05;42.13574;100912.2;;;;-78
2022/06/23 21:03:44;;;;;;;;;;;;;;;25.93;42.39063;100908.9;;;;-78
2022/06/23 21:08:44;;;;;;;;;;;;;;;25.82;42.61133;100907;;;;-78
2022/06/23 21:13:45;;;;;;;;;;;;;;;25.69;42.61133;100909.8;;;;-76
2022/06/23 21:18:46;;;;;;;;;;;;;;;25.57;42.86719;100913.9;;;;-78
2022/06/23 21:21:55;;;;;;;9.5;5.9;;;;;;;;;;;;;-79
2022/06/23 21:23:55;;;;;;;;;;;;;;;25.46;42.9834;100905.2;;;;-78
2022/06/23 21:28:49;;;;;;;;;;;;;;;25.36;42.98438;100897.5;;;;-78
2022/06/23 21:33:42;;;;;;;;;;;;;;;25.27;43.05762;100892.1;;;;-77
2022/06/23 21:38:41;;;;;;;;;;;;;;;25.19;43.26855;100896.9;;;;-78
2022/06/23 21:43:42;;;;;;;;;;;;;;;25.1;43.27344;100915.9;;;;-85
2022/06/23 21:48:47;;;;;;;;;;;;;;;25;43.32129;100908.4;;;;-85
2022/06/23 21:52:02;;;;;;;8.5;5.5;;;;;;;;;;;;;-86
2022/06/23 21:53:48;;;;;;;;;;;;;;;24.92;43.38281;100895.2;;;;-84
2022/06/23 21:58:51;;;;;;;;;;;;;;;24.83;43.43164;100877;;;;-84
2022/06/23 22:03:42;;;;;;;;;;;;;;;24.74;43.51563;100866.7;;;;-85
2022/06/23 22:08:42;;;;;;;;;;;;;;;24.65;43.64551;100859;;;;-85
2022/06/23 22:13:39;;;;;;;;;;;;;;;24.56;43.74023;100867.8;;;;-85
2022/06/23 22:22:18;;;;;;;8.4;5.7;;;;;;;;;;;;;-85
2022/06/23 22:28:50;;;;;;;;;;;;;;;24.31;44.12012;100860.4;;;;-85
2022/06/23 22:33:56;;;;;;;;;;;;;;;24.24;44.31934;100858.8;;;;-86
2022/06/23 22:38:49;;;;;;;;;;;;;;;24.17;44.31348;100853.7;;;;-82
2022/06/23 22:43:50;;;;;;;;;;;;;;;24.11;44.27246;100852.4;;;;-83
2022/06/23 22:48:49;;;;;;;;;;;;;;;24.04;44.50781;100848.5;;;;-86
2022/06/23 22:52:19;;;;;;;9.6;5.6;;;;;;;;;;;;;-85
2022/06/23 22:53:43;;;;;;;;;;;;;;;23.98;44.6748;100858.9;;;;-85
2022/06/23 22:59:02;;;;;;;;;;;;;;;23.91;44.8418;100850.2;;;;-84
2022/06/23 23:03:43;;;;;;;;;;;;;;;23.87;44.84961;100836.3;;;;-85
2022/06/23 23:08:41;;;;;;;;;;;;;;;23.81;44.77441;100814.1;;;;-83
2022/06/23 23:13:42;;;;;;;;;;;;;;;23.77;44.87305;100793.6;;;;-83
2022/06/23 23:18:49;;;;;;;;;;;;;;;23.73;44.87012;100808.1;;;;-85
2022/06/23 23:22:07;;;;;;;9.6;5.8;;;;;;;;;;;;;-84
2022/06/23 23:23:47;;;;;;;;;;;;;;;23.68;44.96777;100798.9;;;;-86
2022/06/23 23:28:42;;;;;;;;;;;;;;;23.63;44.95215;100796.3;;;;-85
2022/06/23 23:33:40;;;;;;;;;;;;;;;23.6;44.99414;100798.5;;;;-84
2022/06/23 23:38:47;;;;;;;;;;;;;;;23.56;44.99023;100794;;;;-84
2022/06/23 23:43:42;;;;;;;;;;;;;;;23.5;44.91602;100780.8;;;;-83
2022/06/23 23:48:39;;;;;;;;;;;;;;;23.46;45.01465;100786.4;;;;-83
2022/06/23 23:52:10;;;;;;;8.9;5.3;;;;;;;;;;;;;-84
2022/06/23 23:53:39;;;;;;;;;;;;;;;23.41;45.06738;100782.3;;;;-84
2022/06/23 23:58:43;;;;;;;;;;;;;;;23.38;45.12305;100783.7;;;;-84
